createdAt,value
2023-01-12T00:01:34.182Z,7.95
2023-01-12T00:04:03.056Z,11.07
2023-01-12T00:06:32.232Z,9.20
2023-01-12T00:08:59.711Z,5.95
2023-01-12T00:11:26.362Z,6.15
2023-01-12T00:13:53.008Z,6.20
2023-01-12T00:16:35.278Z,12.32
2023-01-12T00:19:21.620Z,4.38
2023-01-12T00:21:58.960Z,9.07
2023-01-12T00:24:31.425Z,9.60
2023-01-12T00:26:59.815Z,9.18
2023-01-12T00:29:27.593Z,7.28
2023-01-12T00:31:56.239Z,9.88
2023-01-12T00:34:23.915Z,5.13
2023-01-12T00:36:51.144Z,6.70
2023-01-12T00:39:18.043Z,8.63
2023-01-12T00:42:03.724Z,7.40
2023-01-12T00:44:49.535Z,7.28
2023-01-12T00:47:17.891Z,9.73
2023-01-12T00:49:45.271Z,7.95
2023-01-12T00:52:25.002Z,8.07
2023-01-12T00:54:56.399Z,5.05
2023-01-12T00:57:23.004Z,10.85
2023-01-12T00:59:49.618Z,7.65
2023-01-12T01:02:16.431Z,6.47
2023-01-12T01:04:43.179Z,8.10
2023-01-12T01:07:10.072Z,12.60
2023-01-12T01:09:36.694Z,6.07
2023-01-12T01:12:03.458Z,5.63
2023-01-12T01:14:30.164Z,8.73
2023-01-12T01:16:56.866Z,9.82
2023-01-12T01:19:23.815Z,9.30
2023-01-12T01:21:50.491Z,6.25
2023-01-12T01:24:17.225Z,13.43
2023-01-12T01:26:43.926Z,13.18
2023-01-12T01:29:11.009Z,5.38
2023-01-12T01:31:37.813Z,9.55
2023-01-12T01:34:04.491Z,10.02
2023-01-12T01:36:31.377Z,7.85
2023-01-12T01:38:58.408Z,5.38
2023-01-12T01:41:29.028Z,6.32
2023-01-12T01:43:59.657Z,8.80
2023-01-12T01:46:29.312Z,10.07
2023-01-12T01:48:57.429Z,8.55
2023-01-12T01:51:24.074Z,6.97
2023-01-12T01:53:51.009Z,5.65
2023-01-12T01:56:27.713Z,7.88
2023-01-12T01:59:03.264Z,4.18
2023-01-12T02:01:30.130Z,11.98
2023-01-12T02:03:57.776Z,3.83
2023-01-12T02:06:26.203Z,17.23
2023-01-12T02:09:15.232Z,10.73
2023-01-12T02:12:01.570Z,8.30
2023-01-12T02:14:46.687Z,8.35
2023-01-12T02:17:21.676Z,12.75
2023-01-12T02:20:19.842Z,12.52
2023-01-12T02:23:05.238Z,12.45
2023-01-12T02:26:06.933Z,8.63
2023-01-12T02:29:09.356Z,13.70
2023-01-12T02:32:02.687Z,6.57
2023-01-12T02:34:56.370Z,13.88
2023-01-12T02:37:33.947Z,10.27
2023-01-12T02:40:24.135Z,7.78
2023-01-12T02:43:12.177Z,6.47
2023-01-12T02:45:57.417Z,8.30
2023-01-12T02:48:46.000Z,9.48
2023-01-12T02:51:25.258Z,6.15
2023-01-12T02:53:55.632Z,5.47
2023-01-12T02:56:31.621Z,7.07
2023-01-12T02:59:02.538Z,11.70
2023-01-12T03:01:30.935Z,8.88
2023-01-12T03:04:02.774Z,5.60
2023-01-12T03:07:06.581Z,8.73
2023-01-12T03:09:36.247Z,9.07
2023-01-12T03:12:14.579Z,7.80
2023-01-12T03:14:47.983Z,12.90
2023-01-12T03:17:35.821Z,7.97
2023-01-12T03:20:26.697Z,10.05
2023-01-12T03:23:01.356Z,7.57
2023-01-12T03:25:31.199Z,9.60
2023-01-12T03:28:01.756Z,8.95
2023-01-12T03:31:00.913Z,12.13
2023-01-12T03:33:27.753Z,6.47
2023-01-12T03:36:05.824Z,16.60
2023-01-12T03:39:13.983Z,6.40
2023-01-12T03:42:09.838Z,7.70
2023-01-12T03:45:00.855Z,10.35
2023-01-12T03:47:30.833Z,9.73
2023-01-12T03:50:15.523Z,8.38
2023-01-12T03:52:44.930Z,8.70
2023-01-12T03:55:16.875Z,8.15
2023-01-12T03:57:44.663Z,12.15
2023-01-12T04:00:13.104Z,13.27
2023-01-12T04:02:42.625Z,5.57
2023-01-12T04:05:10.284Z,9.35
2023-01-12T04:07:36.935Z,9.23
2023-01-12T04:10:03.772Z,6.88
2023-01-12T04:12:30.435Z,7.40
2023-01-12T04:14:57.057Z,11.13
2023-01-12T04:17:25.359Z,5.57
2023-01-12T04:19:52.430Z,9.35
2023-01-12T04:22:38.163Z,7.47
2023-01-12T04:25:06.275Z,9.68
2023-01-12T04:27:33.777Z,9.27
2023-01-12T04:30:00.459Z,7.97
2023-01-12T04:32:27.117Z,5.78
2023-01-12T04:34:55.893Z,7.47
2023-01-12T04:37:22.627Z,7.15
2023-01-12T04:39:49.305Z,7.32
2023-01-12T04:42:34.588Z,4.90
2023-01-12T04:45:01.277Z,6.20
2023-01-12T04:47:27.964Z,10.43
2023-01-12T04:49:54.555Z,7.63
2023-01-12T04:52:21.202Z,10.02
2023-01-12T04:54:47.820Z,13.05
2023-01-12T04:57:14.485Z,7.38
2023-01-12T04:59:41.095Z,10.25
2023-01-12T05:02:07.758Z,12.82
2023-01-12T05:04:34.518Z,10.32
2023-01-12T05:07:01.271Z,7.60
2023-01-12T05:09:46.378Z,7.07
2023-01-12T05:12:13.144Z,8.35
2023-01-12T05:14:44.476Z,11.18
2023-01-12T05:17:13.966Z,10.20
2023-01-12T05:19:40.611Z,11.07
2023-01-12T05:22:07.509Z,7.80
2023-01-12T05:24:34.199Z,11.77
2023-01-12T05:27:01.273Z,5.07
2023-01-12T05:29:28.496Z,4.32
2023-01-12T05:31:55.110Z,9.10
2023-01-12T05:34:21.812Z,5.63
2023-01-12T05:36:48.725Z,8.60
2023-01-12T05:39:15.737Z,6.50
2023-01-12T05:42:02.386Z,8.40
2023-01-12T05:44:29.057Z,6.90
2023-01-12T05:46:58.815Z,11.50
2023-01-12T05:49:25.537Z,12.25
2023-01-12T05:51:52.175Z,6.05
2023-01-12T05:54:18.854Z,9.43
2023-01-12T05:56:45.502Z,5.75
2023-01-12T05:59:14.371Z,6.15
2023-01-12T06:01:41.164Z,9.50
2023-01-12T06:04:10.908Z,9.88
2023-01-12T06:06:37.581Z,8.32
2023-01-12T06:09:04.700Z,10.05
2023-01-12T06:11:49.871Z,7.68
2023-01-12T06:14:16.766Z,6.78
2023-01-12T06:16:43.940Z,6.38
2023-01-12T06:19:12.758Z,9.73
2023-01-12T06:21:40.413Z,4.13
2023-01-12T06:24:07.601Z,7.18
2023-01-12T06:26:34.257Z,8.57
2023-01-12T06:29:01.113Z,9.15
2023-01-12T06:31:27.803Z,7.57
2023-01-12T06:33:54.562Z,8.95
2023-01-12T06:36:21.379Z,6.28
2023-01-12T06:38:48.057Z,3.75
2023-01-12T06:41:33.366Z,5.30
2023-01-12T06:44:00.375Z,4.07
2023-01-12T06:46:27.760Z,8.00
2023-01-12T06:48:58.374Z,5.30
2023-01-12T06:51:25.118Z,5.60
2023-01-12T06:53:51.930Z,4.82
2023-01-12T06:56:18.520Z,5.93
2023-01-12T06:58:45.445Z,8.13
2023-01-12T07:01:13.771Z,4.60
2023-01-12T07:03:42.884Z,4.28
2023-01-12T07:06:09.553Z,3.40
2023-01-12T07:08:36.613Z,7.72
2023-01-12T07:11:05.092Z,4.85
2023-01-12T07:13:32.009Z,3.78
2023-01-12T07:16:00.068Z,6.15
2023-01-12T07:18:28.030Z,5.70
2023-01-12T07:20:54.631Z,4.93
2023-01-12T07:23:21.302Z,6.03
2023-01-12T07:25:47.944Z,4.05
2023-01-12T07:28:15.013Z,2.67
2023-01-12T07:30:41.852Z,7.57
2023-01-12T07:33:10.816Z,4.93
2023-01-12T07:35:37.444Z,4.10
2023-01-12T07:38:04.505Z,3.55
2023-01-12T07:40:31.141Z,5.10
2023-01-12T07:42:59.354Z,4.70
2023-01-12T07:45:26.333Z,5.57
2023-01-12T07:47:54.920Z,6.32
2023-01-12T07:50:23.037Z,4.10
2023-01-12T07:52:49.824Z,5.43
2023-01-12T07:55:18.968Z,5.95
2023-01-12T07:57:56.802Z,5.05
2023-01-12T08:00:25.054Z,8.35
2023-01-12T08:02:53.652Z,4.63
2023-01-12T08:05:21.627Z,6.10
2023-01-12T08:07:48.841Z,4.50
2023-01-12T08:10:16.130Z,8.55
2023-01-12T08:12:42.930Z,6.13
2023-01-12T08:15:12.862Z,7.38
2023-01-12T08:18:05.760Z,5.20
2023-01-12T08:20:35.369Z,8.48
2023-01-12T08:23:13.395Z,6.07
2023-01-12T08:25:46.215Z,6.93
2023-01-12T08:28:19.286Z,5.03
2023-01-12T08:30:48.800Z,5.50
2023-01-12T08:33:16.283Z,5.63
2023-01-12T08:35:46.437Z,3.05
2023-01-12T08:38:13.641Z,4.80
2023-01-12T08:40:58.767Z,4.90
2023-01-12T08:43:43.962Z,6.47
2023-01-12T08:46:10.879Z,9.85
2023-01-12T08:48:38.448Z,5.03
2023-01-12T08:51:07.875Z,5.68
2023-01-12T08:53:35.433Z,4.40
2023-01-12T08:56:02.121Z,4.53
2023-01-12T08:58:28.778Z,4.40
2023-01-12T09:00:55.671Z,9.60
2023-01-12T09:03:22.460Z,8.07
2023-01-12T09:05:49.097Z,4.65
2023-01-12T09:08:15.772Z,5.65
2023-01-12T09:10:42.385Z,3.35
2023-01-12T09:13:10.177Z,3.45
2023-01-12T09:15:37.954Z,4.47
2023-01-12T09:18:04.631Z,3.38
2023-01-12T09:20:31.325Z,3.30
2023-01-12T09:22:57.999Z,3.15
2023-01-12T09:25:24.855Z,5.63
2023-01-12T09:27:51.503Z,3.28
2023-01-12T09:30:18.654Z,6.40
2023-01-12T09:32:45.411Z,2.38
2023-01-12T09:35:12.099Z,3.13
2023-01-12T09:37:40.496Z,2.15
2023-01-12T09:40:07.909Z,1.60
2023-01-12T09:42:58.109Z,1.13
2023-01-12T09:45:43.823Z,3.85
2023-01-12T09:48:13.591Z,1.15
2023-01-12T09:50:48.533Z,1.08
2023-01-12T09:53:20.788Z,2.80
2023-01-12T09:55:50.545Z,2.35
2023-01-12T09:58:37.425Z,2.00
2023-01-12T10:01:14.637Z,2.83
2023-01-12T10:03:44.180Z,3.50
2023-01-12T10:06:17.276Z,3.10
2023-01-12T10:08:51.868Z,2.97
2023-01-12T10:11:52.816Z,1.00
2023-01-12T10:14:28.557Z,2.97
2023-01-12T10:17:16.952Z,1.38
2023-01-12T10:19:45.915Z,2.55
2023-01-12T10:22:37.758Z,1.90
2023-01-12T10:25:25.921Z,1.40
2023-01-12T10:27:54.863Z,2.58
2023-01-12T10:30:29.121Z,2.08
2023-01-12T10:32:56.115Z,2.10
2023-01-12T10:35:24.348Z,2.47
2023-01-12T10:37:56.192Z,0.52
2023-01-12T10:40:30.359Z,3.17
2023-01-12T10:43:22.434Z,2.42
2023-01-12T10:46:12.696Z,4.53
2023-01-12T10:48:43.272Z,3.60
2023-01-12T10:51:24.135Z,2.83
2023-01-12T10:54:00.889Z,1.65
2023-01-12T10:56:40.845Z,3.13
2023-01-12T10:59:13.656Z,1.45
2023-01-12T11:02:02.179Z,2.35
2023-01-12T11:04:29.964Z,3.78
2023-01-12T11:07:00.575Z,1.25
2023-01-12T11:09:30.078Z,1.13
2023-01-12T11:12:00.149Z,2.00
2023-01-12T11:14:32.982Z,2.85
2023-01-12T11:17:13.226Z,2.97
2023-01-12T11:19:43.205Z,2.15
2023-01-12T11:22:17.884Z,2.10
2023-01-12T11:24:53.064Z,1.77
2023-01-12T11:27:32.373Z,1.58
2023-01-12T11:30:16.211Z,2.40
2023-01-12T11:33:15.519Z,2.05
2023-01-12T11:35:42.139Z,1.85
2023-01-12T11:38:25.111Z,1.23
2023-01-12T11:40:53.476Z,1.90
2023-01-12T11:43:51.401Z,1.58
2023-01-12T11:46:36.218Z,3.35
2023-01-12T11:49:12.854Z,2.45
2023-01-12T11:51:40.376Z,1.70
2023-01-12T11:54:13.659Z,1.30
2023-01-12T11:57:14.068Z,1.50
2023-01-12T11:59:57.935Z,1.95
2023-01-12T12:02:41.648Z,3.30
2023-01-12T12:05:20.659Z,0.85
2023-01-12T12:07:59.496Z,0.95
2023-01-12T12:10:32.159Z,1.02
2023-01-12T12:13:23.088Z,2.55
2023-01-12T12:16:21.349Z,3.40
2023-01-12T12:18:59.745Z,1.45
2023-01-12T12:22:01.948Z,3.13
2023-01-12T12:24:51.732Z,1.38
2023-01-12T12:27:37.202Z,1.20
2023-01-12T12:30:40.989Z,3.28
2023-01-12T12:33:43.660Z,1.48
2023-01-12T12:36:20.677Z,3.25
2023-01-12T12:39:31.238Z,2.58
2023-01-12T12:42:44.503Z,1.45
2023-01-12T12:45:17.070Z,2.75
2023-01-12T12:47:56.086Z,1.85
2023-01-12T12:50:38.569Z,2.80
2023-01-12T12:53:32.877Z,2.13
2023-01-12T12:56:04.595Z,2.00
2023-01-12T13:01:25.015Z,5.13
2023-01-12T13:03:53.351Z,1.67
2023-01-12T13:06:31.347Z,0.38
2023-01-12T13:09:14.253Z,1.15
2023-01-12T13:12:00.097Z,1.15
2023-01-12T13:14:31.108Z,2.42
2023-01-12T13:17:21.153Z,0.70
2023-01-12T13:20:08.357Z,2.95
2023-01-12T13:22:50.491Z,3.65
2023-01-12T13:25:17.124Z,0.70
2023-01-12T13:27:47.810Z,2.10
2023-01-12T13:30:23.790Z,1.05
2023-01-12T13:33:14.798Z,2.38
2023-01-12T13:35:44.429Z,1.83
2023-01-12T13:38:32.978Z,1.40
2023-01-12T13:41:15.296Z,1.60
2023-01-12T13:43:49.789Z,2.60
2023-01-12T13:46:21.135Z,4.20
2023-01-12T13:48:53.353Z,1.58
2023-01-12T13:51:28.558Z,2.35
2023-01-12T13:54:07.329Z,1.98
2023-01-12T13:56:35.103Z,3.03
2023-01-12T13:59:04.531Z,2.30
2023-01-12T14:01:38.506Z,3.90
2023-01-12T14:04:16.379Z,2.15
2023-01-12T14:07:22.896Z,4.95
2023-01-12T14:10:14.650Z,3.92
2023-01-12T14:13:10.973Z,4.28
2023-01-12T14:16:01.257Z,2.78
2023-01-12T14:18:41.217Z,5.95
2023-01-12T14:21:37.470Z,2.53
2023-01-12T14:24:20.336Z,3.50
2023-01-12T14:26:47.151Z,2.75
2023-01-12T14:29:15.092Z,3.08
2023-01-12T14:31:48.533Z,2.60
2023-01-12T14:34:22.454Z,5.63
2023-01-12T14:36:49.319Z,3.05
2023-01-12T14:39:24.353Z,2.83
2023-01-12T14:42:12.228Z,2.85
2023-01-12T14:45:12.095Z,2.35
2023-01-12T14:47:39.694Z,3.10
2023-01-12T14:50:12.329Z,2.35
2023-01-12T14:52:40.680Z,2.55
2023-01-12T14:55:36.731Z,3.17
2023-01-12T14:58:05.394Z,3.40
2023-01-12T15:00:36.613Z,1.48
2023-01-12T15:03:17.811Z,5.95
2023-01-12T15:05:54.785Z,1.65
2023-01-12T15:08:28.149Z,4.57
2023-01-12T15:11:37.617Z,3.92
2023-01-12T15:14:07.089Z,2.72
2023-01-12T15:16:52.662Z,2.17
2023-01-12T15:19:37.866Z,3.95
2023-01-12T15:22:28.692Z,2.50
2023-01-12T15:25:14.595Z,3.53
2023-01-12T15:27:41.289Z,4.72
2023-01-12T15:30:10.741Z,5.63
2023-01-12T15:32:47.242Z,2.22
2023-01-12T15:35:26.352Z,2.10
2023-01-12T15:37:55.375Z,5.22
2023-01-12T15:40:22.755Z,1.73
2023-01-12T15:42:53.067Z,2.28
2023-01-12T15:45:35.113Z,3.28
2023-01-12T15:48:03.060Z,3.65
2023-01-12T15:50:31.297Z,5.35
2023-01-12T15:53:00.459Z,5.75
2023-01-12T15:55:27.500Z,2.42
2023-01-12T15:57:55.517Z,2.40
2023-01-12T16:00:23.971Z,4.25
2023-01-12T16:02:52.294Z,2.78
2023-01-12T16:05:22.729Z,3.80
2023-01-12T16:07:49.753Z,1.55
2023-01-12T16:10:17.156Z,2.47
2023-01-12T16:12:44.507Z,1.98
2023-01-12T16:15:18.661Z,1.98
2023-01-12T16:17:45.977Z,4.43
2023-01-12T16:20:13.695Z,1.88
2023-01-12T16:22:40.459Z,2.88
2023-01-12T16:25:07.756Z,3.42
2023-01-12T16:27:36.208Z,3.97
2023-01-12T16:30:05.899Z,2.35
2023-01-12T16:32:33.074Z,2.30
2023-01-12T16:34:59.902Z,2.42
2023-01-12T16:37:29.955Z,3.15
2023-01-12T16:39:56.670Z,4.72
2023-01-12T16:42:23.378Z,4.15
2023-01-12T16:44:50.346Z,2.65
2023-01-12T16:47:20.035Z,2.40
2023-01-12T16:49:51.242Z,2.38
2023-01-12T16:52:19.755Z,1.30
2023-01-12T16:54:46.576Z,3.20
2023-01-12T16:57:15.958Z,4.03
2023-01-12T16:59:43.276Z,3.15
2023-01-12T17:02:17.369Z,3.30
2023-01-12T17:04:45.891Z,2.88
2023-01-12T17:07:13.016Z,2.03
2023-01-12T17:09:40.566Z,3.58
2023-01-12T17:12:07.855Z,0.80
2023-01-12T17:14:36.002Z,2.30
2023-01-12T17:17:07.342Z,3.30
2023-01-12T17:19:35.950Z,2.70
2023-01-12T17:22:04.574Z,2.17
2023-01-12T17:24:33.377Z,1.90
2023-01-12T17:27:00.675Z,6.88
2023-01-12T17:29:28.589Z,2.55
2023-01-12T17:32:03.341Z,1.88
2023-01-12T17:34:31.972Z,2.40
2023-01-12T17:37:03.014Z,2.45
2023-01-12T17:39:30.848Z,3.15
2023-01-12T17:42:16.118Z,1.75
2023-01-12T17:44:43.050Z,3.10
2023-01-12T17:47:10.964Z,3.25
2023-01-12T17:49:37.871Z,3.22
2023-01-12T17:52:05.400Z,3.40
2023-01-12T17:54:32.286Z,2.83
2023-01-12T17:56:59.046Z,2.03
2023-01-12T17:59:25.908Z,2.72
2023-01-12T18:01:55.319Z,1.63
2023-01-12T18:04:22.362Z,2.50
2023-01-12T18:06:49.573Z,3.50
2023-01-12T18:09:16.579Z,2.95
2023-01-12T18:11:43.358Z,4.00
2023-01-12T18:14:10.520Z,3.10
2023-01-12T18:16:37.373Z,1.55
2023-01-12T18:19:06.934Z,3.35
2023-01-12T18:21:34.823Z,1.70
2023-01-12T18:24:02.213Z,1.92
2023-01-12T18:26:35.641Z,3.45
2023-01-12T18:29:05.112Z,3.65
2023-01-12T18:31:37.165Z,1.63
2023-01-12T18:34:05.392Z,2.20
2023-01-12T18:36:34.694Z,1.95
2023-01-12T18:39:01.723Z,2.47
2023-01-12T18:41:47.079Z,3.80
2023-01-12T18:44:13.864Z,3.97
2023-01-12T18:47:01.378Z,1.40
2023-01-12T18:49:31.310Z,4.63
2023-01-12T18:52:16.974Z,4.15
2023-01-12T18:54:45.220Z,1.30
2023-01-12T18:57:14.169Z,2.63
2023-01-12T18:59:42.059Z,2.72
2023-01-12T19:02:14.377Z,1.77
2023-01-12T19:05:01.325Z,3.97
2023-01-12T19:07:33.650Z,2.13
2023-01-12T19:10:00.746Z,4.78
2023-01-12T19:12:27.769Z,3.78
2023-01-12T19:15:12.984Z,2.28
2023-01-12T19:17:42.080Z,4.05
2023-01-12T19:20:16.032Z,0.90
2023-01-12T19:23:01.834Z,1.17
2023-01-12T19:25:47.460Z,2.67
2023-01-12T19:28:35.119Z,3.40
2023-01-12T19:31:04.636Z,2.92
2023-01-12T19:33:31.632Z,2.03
2023-01-12T19:35:59.182Z,2.25
2023-01-12T19:38:25.926Z,3.00
2023-01-12T19:40:54.573Z,4.00
2023-01-12T19:43:26.218Z,3.38
2023-01-12T19:48:26.976Z,3.25
2023-01-12T19:50:54.237Z,2.97
2023-01-12T19:53:28.695Z,3.78
2023-01-12T19:55:55.957Z,2.95
2023-01-12T19:58:25.144Z,2.78
2023-01-12T20:00:51.983Z,2.88
2023-01-12T20:03:21.589Z,3.67
2023-01-12T20:05:51.971Z,2.75
2023-01-12T20:08:21.533Z,2.50
2023-01-12T20:10:57.883Z,4.10
2023-01-12T20:13:26.621Z,4.38
2023-01-12T20:15:55.057Z,2.95
2023-01-12T20:18:21.842Z,4.53
2023-01-12T20:20:48.595Z,4.25
2023-01-12T20:23:15.575Z,3.30
2023-01-12T20:25:43.208Z,1.95
2023-01-12T20:28:12.243Z,1.58
2023-01-12T20:30:40.920Z,2.75
2023-01-12T20:33:08.080Z,7.38
2023-01-12T20:35:35.384Z,1.73
2023-01-12T20:38:04.274Z,3.90
2023-01-12T20:40:31.147Z,1.52
2023-01-12T20:42:57.908Z,5.90
2023-01-12T20:45:24.672Z,3.95
2023-01-12T20:47:51.697Z,2.13
2023-01-12T20:50:19.115Z,4.43
2023-01-12T20:52:48.156Z,3.85
2023-01-12T20:55:15.717Z,3.58
2023-01-12T20:57:42.415Z,3.78
2023-01-12T21:00:10.379Z,2.00
2023-01-12T21:02:37.680Z,4.65
2023-01-12T21:05:04.905Z,4.40
2023-01-12T21:07:31.852Z,3.55
2023-01-12T21:09:58.513Z,2.15
2023-01-12T21:12:27.534Z,3.17
2023-01-12T21:14:55.017Z,3.55
2023-01-12T21:17:21.862Z,3.42
2023-01-12T21:19:49.696Z,3.50
2023-01-12T21:22:17.285Z,2.83
2023-01-12T21:24:45.102Z,3.55
2023-01-12T21:27:12.257Z,2.85
2023-01-12T21:29:39.061Z,4.55
2023-01-12T21:32:08.863Z,1.95
2023-01-12T21:34:35.838Z,2.83
2023-01-12T21:37:02.693Z,4.32
2023-01-12T21:39:29.559Z,1.02
2023-01-12T21:42:14.915Z,1.00
2023-01-12T21:44:41.734Z,4.18
2023-01-12T21:47:08.453Z,1.77
2023-01-12T21:49:35.355Z,1.23
2023-01-12T21:52:02.005Z,3.83
2023-01-12T21:54:28.999Z,3.78
2023-01-12T21:56:55.677Z,1.02
2023-01-12T21:59:22.344Z,3.13
2023-01-12T22:01:49.100Z,1.95
2023-01-12T22:04:15.891Z,1.35
2023-01-12T22:06:42.534Z,4.97
2023-01-12T22:09:09.260Z,2.92
2023-01-12T22:11:35.946Z,3.85
2023-01-12T22:14:02.593Z,1.10
2023-01-12T22:16:29.357Z,4.00
2023-01-12T22:18:56.153Z,2.53
2023-01-12T22:21:23.009Z,1.05
2023-01-12T22:23:49.801Z,1.98
2023-01-12T22:26:17.725Z,2.50
2023-01-12T22:28:47.631Z,3.42
2023-01-12T22:31:17.280Z,2.97
2023-01-12T22:33:46.433Z,2.03
2023-01-12T22:36:13.576Z,4.38
2023-01-12T22:38:40.213Z,3.38
2023-01-12T22:41:08.112Z,1.95
2023-01-12T22:43:40.647Z,0.50
2023-01-12T22:46:15.902Z,1.40
2023-01-12T22:48:42.667Z,2.00
2023-01-12T22:51:09.787Z,1.52
2023-01-12T22:53:36.641Z,2.65
2023-01-12T22:56:04.388Z,1.23
2023-01-12T22:58:31.457Z,1.23
2023-01-12T23:01:09.366Z,1.33
2023-01-12T23:03:37.464Z,1.55
2023-01-12T23:06:05.517Z,1.60
2023-01-12T23:08:32.390Z,3.10
2023-01-12T23:11:07.168Z,2.15
2023-01-12T23:13:34.950Z,2.40
2023-01-12T23:16:04.948Z,2.00
2023-01-12T23:18:33.221Z,3.58
2023-01-12T23:21:25.103Z,3.40
2023-01-12T23:26:32.729Z,0.82
2023-01-12T23:29:01.224Z,1.85
2023-01-12T23:31:30.496Z,2.13
2023-01-12T23:33:57.522Z,3.42
2023-01-12T23:36:26.803Z,2.65
2023-01-12T23:38:54.741Z,2.55
2023-01-12T23:41:23.532Z,2.35
2023-01-12T23:43:52.187Z,2.65
2023-01-12T23:46:23.507Z,2.28
2023-01-12T23:48:52.667Z,3.30
2023-01-12T23:51:19.727Z,2.50
2023-01-12T23:53:46.900Z,1.65
2023-01-12T23:56:22.624Z,2.60
2023-01-12T23:58:49.501Z,1.75
